Time;durP1;ratioP1;P1;durP2;ratioP2;P2;SDS_P1;SDS_P2;PMS_P1;PMS_P2;Temp;Humidity;BMP_temperature;BMP_pressure;BME280_temperature;BME280_humidity;BME280_pressure;Samples;Min_cycle;Max_cycle;Signal;HPM_P1;HPM_P2
2022/07/04 00:02:23;;;;;;;6.13;1.70;;;;;;;23.49;46.43;97997.28;8401625;28;20237;-80
2022/07/04 00:06:28;;;;;;;2.57;1.43;;;;;;;23.55;46.23;98001.97;8417609;28;20234;-79
2022/07/04 00:10:31;;;;;;;2.23;1.20;;;;;;;23.54;46.62;98000.31;8417557;28;20235;-79
2022/07/04 00:14:34;;;;;;;5.03;1.40;;;;;;;23.51;45.99;98000.59;8417469;28;20235;-80
2022/07/04 00:18:42;;;;;;;3.77;1.33;;;;;;;23.58;46.21;98002.50;8417388;28;20261;-80
2022/07/04 00:22:46;;;;;;;2.93;1.40;;;;;;;23.57;46.34;97986.78;8417231;28;20223;-80
2022/07/04 00:26:49;;;;;;;3.57;1.53;;;;;;;23.53;46.91;97996.00;8416264;28;20544;-80
2022/07/04 00:30:52;;;;;;;3.53;1.60;;;;;;;23.55;46.79;98004.59;8416928;28;20242;-80
2022/07/04 00:34:55;;;;;;;3.10;1.87;;;;;;;23.59;46.61;98003.34;8417003;28;20264;-80
2022/07/04 00:39:00;;;;;;;3.93;1.60;;;;;;;23.57;46.73;98014.06;8416436;28;20232;-79
2022/07/04 00:43:03;;;;;;;4.67;1.43;;;;;;;23.51;46.56;98005.88;8416483;28;20227;-79
2022/07/04 00:47:07;;;;;;;2.90;1.40;;;;;;;23.49;47.29;98016.59;8416335;28;20425;-79
2022/07/04 00:51:11;;;;;;;3.17;1.60;;;;;;;23.47;46.95;98021.22;8416218;28;20231;-79
2022/07/04 00:55:16;;;;;;;3.77;1.70;;;;;;;23.46;46.48;98021.38;8416093;28;20542;-80
2022/07/04 00:59:18;;;;;;;2.63;1.40;;;;;;;23.39;47.12;98018.47;8415810;28;20251;-80
2022/07/04 01:03:21;;;;;;;4.23;1.40;;;;;;;23.39;47.15;98013.19;8415668;28;20624;-80
2022/07/04 01:07:24;;;;;;;2.27;1.57;;;;;;;23.35;47.63;98004.72;8414883;28;20436;-79
2022/07/04 01:11:28;;;;;;;1.80;1.37;;;;;;;23.38;47.40;98004.44;8415375;28;20235;-79
2022/07/04 01:15:31;;;;;;;1.33;1.17;;;;;;;23.47;47.09;97997.41;8415324;28;20540;-79
2022/07/04 01:19:34;;;;;;;2.67;1.20;;;;;;;23.39;47.41;97992.06;8415241;28;20411;-79
2022/07/04 01:23:39;;;;;;;2.90;1.30;;;;;;;23.41;47.54;97995.38;8414603;28;20238;-79
2022/07/04 01:27:42;;;;;;;4.13;1.37;;;;;;;23.29;47.84;97989.47;8414864;28;20545;-79
2022/07/04 01:31:45;;;;;;;2.73;1.30;;;;;;;23.32;48.11;97996.28;8414722;28;20227;-80
2022/07/04 01:35:48;;;;;;;3.07;1.20;;;;;;;23.30;47.44;97998.22;8414671;28;20226;-79
2022/07/04 01:39:53;;;;;;;2.87;1.30;;;;;;;23.22;46.89;97996.31;8414469;28;20234;-80
2022/07/04 01:43:56;;;;;;;3.57;1.40;;;;;;;23.21;47.35;97995.50;8414455;28;20234;-80
2022/07/04 01:47:58;;;;;;;4.17;1.30;;;;;;;23.25;47.66;97997.81;8414369;28;20234;-80
2022/07/04 01:52:01;;;;;;;5.10;1.60;;;;;;;23.01;47.76;97996.53;8414132;28;20234;-80
2022/07/04 01:56:06;;;;;;;3.27;1.37;;;;;;;23.02;48.64;98006.13;8414118;28;20231;-80
2022/07/04 02:04:31;;;;;;;3.23;1.53;;;;;;;23.06;47.93;98010.19;8413554;28;20230;-79
2022/07/04 02:13:04;;;;;;;4.87;1.60;;;;;;;23.06;48.14;98012.00;8412979;28;20227;-80
2022/07/04 02:17:07;;;;;;;3.43;1.50;;;;;;;22.98;48.36;98010.03;8413570;28;20552;-80
2022/07/04 02:21:10;;;;;;;2.63;1.30;;;;;;;22.96;48.06;98011.97;8413781;28;20230;-80
2022/07/04 02:25:13;;;;;;;6.93;1.50;;;;;;;22.95;48.05;98010.34;8413675;28;20238;-80
2022/07/04 02:29:17;;;;;;;2.27;1.43;;;;;;;22.93;47.92;98022.84;8413722;28;20234;-80
2022/07/04 02:33:20;;;;;;;6.47;1.53;;;;;;;22.88;47.02;98015.34;8413590;28;20230;-80
2022/07/04 02:37:23;;;;;;;4.03;1.30;;;;;;;22.91;46.10;98020.34;8412944;28;20249;-79
2022/07/04 02:41:26;;;;;;;1.90;1.20;;;;;;;22.88;46.06;98030.34;8413210;28;20544;-79
2022/07/04 02:45:30;;;;;;;1.90;1.37;;;;;;;22.89;45.70;98034.69;8413384;28;20230;-79
2022/07/04 02:49:33;;;;;;;5.07;1.47;;;;;;;22.82;45.40;98032.59;8417457;28;20552;-80
2022/07/04 02:53:36;;;;;;;4.33;1.37;;;;;;;22.76;45.26;98049.00;8419977;28;20253;-80
2022/07/04 02:57:38;;;;;;;5.90;1.40;;;;;;;22.73;45.50;98048.47;8419769;28;20314;-80
2022/07/04 03:01:43;;;;;;;4.10;1.30;;;;;;;22.80;45.39;98055.66;8419549;28;20234;-79
2022/07/04 03:05:46;;;;;;;3.00;1.30;;;;;;;22.75;45.34;98057.06;8419367;28;20345;-79
2022/07/04 03:09:48;;;;;;;4.63;1.47;;;;;;;22.72;45.47;98065.28;8419061;28;20239;-79
2022/07/04 03:13:51;;;;;;;4.60;1.60;;;;;;;22.59;45.99;98068.22;8419287;28;20230;-79
2022/07/04 03:17:56;;;;;;;2.57;1.40;;;;;;;22.63;45.81;98074.88;8418891;28;20234;-79
2022/07/04 03:21:58;;;;;;;3.30;1.53;;;;;;;22.53;45.89;98076.72;8418989;28;20423;-79
2022/07/04 03:26:01;;;;;;;1.73;1.43;;;;;;;22.54;45.96;98084.50;8418748;28;20237;-80
2022/07/04 03:30:05;;;;;;;3.40;1.30;;;;;;;22.52;46.00;98088.22;8418839;28;20238;-80
2022/07/04 03:34:09;;;;;;;3.83;1.40;;;;;;;22.49;46.14;98085.88;8418726;28;20226;-80
2022/07/04 03:38:12;;;;;;;2.73;1.60;;;;;;;22.47;46.09;98090.47;8418501;28;20227;-79
2022/07/04 03:42:15;;;;;;;2.37;1.40;;;;;;;22.40;46.32;98101.56;8418323;28;20234;-79
2022/07/04 03:46:18;;;;;;;3.50;1.40;;;;;;;22.41;46.27;98102.41;8418377;28;20228;-79
2022/07/04 03:50:22;;;;;;;2.70;1.40;;;;;;;22.44;46.26;98104.75;8418119;28;20231;-79
2022/07/04 03:54:28;;;;;;;3.13;1.30;;;;;;;22.40;46.24;98101.56;8417547;28;20529;-79
2022/07/04 03:58:31;;;;;;;4.47;1.40;;;;;;;22.35;46.52;98103.81;8417219;28;20235;-79
2022/07/04 04:02:34;;;;;;;3.07;1.40;;;;;;;22.41;46.07;98107.69;8416957;28;20230;-79
2022/07/04 04:06:38;;;;;;;2.77;1.50;;;;;;;22.36;46.41;98126.56;8417746;28;20236;-79
2022/07/04 04:10:42;;;;;;;2.43;1.33;;;;;;;22.35;46.68;98121.41;8417338;28;20542;-79
2022/07/04 04:14:45;;;;;;;3.13;1.30;;;;;;;22.37;46.39;98136.16;8417370;28;20230;-79
2022/07/04 04:18:49;;;;;;;2.77;1.30;;;;;;;22.32;46.74;98133.09;8417467;28;20231;-80
2022/07/04 04:22:53;;;;;;;3.63;1.80;;;;;;;22.35;46.28;98137.25;8417248;28;20237;-80
2022/07/04 04:26:55;;;;;;;3.73;1.40;;;;;;;22.40;46.50;98150.88;8417045;28;20517;-80
2022/07/04 04:30:58;;;;;;;3.23;1.50;;;;;;;22.41;46.59;98148.09;8416925;28;20234;-80
2022/07/04 04:35:01;;;;;;;2.40;1.27;;;;;;;22.46;46.50;98150.31;8389132;28;20234;-80
2022/07/04 04:39:05;;;;;;;4.90;1.73;;;;;;;22.43;46.76;98148.78;8383278;28;20227;-79
2022/07/04 04:43:08;;;;;;;2.47;1.50;;;;;;;22.46;46.63;98145.03;8383444;28;20421;-81
2022/07/04 04:47:11;;;;;;;3.97;1.90;;;;;;;22.52;46.44;98154.19;8383124;28;20227;-81
2022/07/04 04:51:14;;;;;;;4.87;1.70;;;;;;;22.53;46.18;98156.69;8383211;28;20422;-81
2022/07/04 04:55:18;;;;;;;3.93;1.70;;;;;;;22.54;46.11;98154.88;8382942;28;20308;-81
2022/07/04 04:59:20;;;;;;;2.57;1.40;;;;;;;22.62;46.00;98155.88;8382792;28;20429;-81
2022/07/04 05:03:23;;;;;;;3.33;1.30;;;;;;;22.60;45.64;98160.47;8408705;28;20229;-78
2022/07/04 05:07:26;;;;;;;3.40;1.43;;;;;;;22.69;45.53;98168.50;8414922;28;20243;-82
2022/07/04 05:11:31;;;;;;;4.80;1.60;;;;;;;22.68;45.95;98165.03;8415439;28;20237;-81
2022/07/04 05:15:34;;;;;;;3.13;1.40;;;;;;;22.68;46.03;98169.50;8415519;28;20293;-80
2022/07/04 05:19:37;;;;;;;3.63;1.70;;;;;;;22.72;45.87;98163.78;8415255;28;20241;-80
2022/07/04 05:23:40;;;;;;;2.97;1.50;;;;;;;22.67;46.44;98168.63;8415047;28;20230;-80
2022/07/04 05:27:45;;;;;;;3.87;1.40;;;;;;;22.88;45.77;98168.47;8414746;28;20250;-79
2022/07/04 05:31:49;;;;;;;5.43;1.60;;;;;;;22.98;45.75;98169.31;8415248;28;20222;-80
2022/07/04 05:35:52;;;;;;;5.23;1.30;;;;;;;22.93;46.28;98157.50;8414739;28;20237;-81
2022/07/04 05:39:55;;;;;;;2.43;1.47;;;;;;;23.01;45.28;98168.19;8414319;28;20231;-81
2022/07/04 05:44:00;;;;;;;5.00;1.57;;;;;;;23.10;45.40;98166.56;8414362;28;20336;-80
2022/07/04 05:48:02;;;;;;;7.73;1.40;;;;;;;23.03;45.90;98174.19;8414393;28;20235;-80
2022/07/04 05:52:05;;;;;;;5.40;1.50;;;;;;;23.11;45.69;98189.34;8414292;28;20230;-80
2022/07/04 05:56:09;;;;;;;3.10;1.47;;;;;;;23.25;45.27;98199.47;8414151;28;20226;-80
2022/07/04 06:00:14;;;;;;;3.90;1.40;;;;;;;23.22;44.98;98190.00;8414289;28;20250;-81
2022/07/04 06:04:17;;;;;;;3.90;1.47;;;;;;;23.37;45.25;98189.56;8414115;28;20238;-80
2022/07/04 06:08:20;;;;;;;4.83;1.53;;;;;;;23.21;45.13;98191.00;8413890;28;20245;-80
2022/07/04 06:12:23;;;;;;;2.30;1.60;;;;;;;23.35;45.17;98192.34;8413541;28;20238;-80
2022/07/04 06:16:28;;;;;;;4.27;1.70;;;;;;;23.63;44.66;98189.75;8413753;28;20542;-79
2022/07/04 06:20:30;;;;;;;3.30;1.53;;;;;;;23.95;43.78;98196.44;8413705;28;20238;-80
2022/07/04 06:24:33;;;;;;;2.47;1.27;;;;;;;23.85;44.04;98199.13;8412941;28;20234;-80
2022/07/04 06:28:36;;;;;;;5.07;1.60;;;;;;;24.01;43.90;98203.81;8413399;28;20239;-80
2022/07/04 06:32:51;;;;;;;5.13;1.50;;;;;;;24.15;43.21;98199.81;8413417;28;20296;-80
2022/07/04 06:36:54;;;;;;;5.50;1.70;;;;;;;24.37;42.98;98204.69;8413555;28;20231;-80
2022/07/04 06:40:58;;;;;;;4.07;1.60;;;;;;;24.10;42.65;98205.53;8413524;28;20230;-81
2022/07/04 06:45:01;;;;;;;3.00;1.40;;;;;;;24.39;43.51;98201.91;8413305;28;20231;-81
2022/07/04 06:49:05;;;;;;;5.53;1.73;;;;;;;24.45;42.66;98203.94;8413344;28;20226;-81
2022/07/04 06:53:09;;;;;;;3.53;1.50;;;;;;;24.44;41.95;98202.25;8413434;28;20235;-81
2022/07/04 06:57:13;;;;;;;3.73;1.50;;;;;;;24.87;42.31;98202.53;8413410;28;20393;-80
2022/07/04 07:01:32;;;;;;;6.33;1.63;;;;;;;25.23;41.91;98197.22;8412710;28;20225;-80
2022/07/04 07:05:37;;;;;;;4.20;1.57;;;;;;;25.40;41.26;98198.13;8413118;28;20284;-80
2022/07/04 07:10:01;;;;;;;3.57;1.60;;;;;;;25.21;42.27;98193.81;8412598;28;20430;-81
2022/07/04 07:14:04;;;;;;;4.07;1.60;;;;;;;25.24;41.58;98196.22;8412977;28;20227;-80
2022/07/04 07:18:07;;;;;;;5.20;1.70;;;;;;;25.34;42.17;98187.16;8412941;28;20223;-80
2022/07/04 07:22:12;;;;;;;4.47;1.73;;;;;;;25.32;40.48;98191.81;8412761;28;20515;-80
2022/07/04 07:26:14;;;;;;;7.23;1.63;;;;;;;25.36;41.18;98179.91;8412811;28;20250;-80
2022/07/04 07:30:17;;;;;;;3.23;1.60;;;;;;;25.56;40.84;98188.44;8412706;28;20520;-80
2022/07/04 07:34:20;;;;;;;3.07;1.60;;;;;;;26.39;39.39;98188.75;8414722;28;20230;-81
2022/07/04 07:38:24;;;;;;;2.93;1.70;;;;;;;25.97;39.70;98185.19;8418257;28;20427;-80
2022/07/04 07:42:27;;;;;;;6.00;1.70;;;;;;;25.85;40.95;98189.06;8418601;28;20251;-81
2022/07/04 07:46:30;;;;;;;7.10;1.60;;;;;;;26.47;38.31;98194.09;8417331;28;20248;-81
2022/07/04 07:50:33;;;;;;;3.27;2.00;;;;;;;26.84;37.96;98196.28;8418381;28;20238;-81
2022/07/04 07:54:37;;;;;;;4.30;1.47;;;;;;;26.82;37.91;98192.16;8417789;28;20235;-82
2022/07/04 07:59:00;;;;;;;3.53;1.60;;;;;;;26.74;38.15;98198.28;8417774;28;20301;-82
2022/07/04 08:07:24;;;;;;;3.47;1.70;;;;;;;26.51;38.03;98198.91;8417185;28;20302;-82
2022/07/04 08:11:28;;;;;;;4.20;1.97;;;;;;;26.43;38.63;98193.59;8412797;28;20237;-78
2022/07/04 08:15:32;;;;;;;6.50;1.80;;;;;;;26.46;39.66;98195.06;8383983;28;20244;-79
2022/07/04 08:19:35;;;;;;;3.93;1.80;;;;;;;26.13;39.36;98195.00;8383923;28;20323;-78
2022/07/04 08:23:37;;;;;;;2.83;1.80;;;;;;;26.67;38.17;98187.50;8383922;28;20238;-78
2022/07/04 08:27:55;;;;;;;6.60;1.80;;;;;;;26.86;37.69;98182.84;8383574;28;20247;-78
2022/07/04 08:31:58;;;;;;;2.27;1.63;;;;;;;26.73;38.60;98175.38;8383751;28;20235;-79
2022/07/04 08:36:01;;;;;;;4.63;1.80;;;;;;;26.73;38.79;98178.03;8383885;28;20449;-78
2022/07/04 08:40:07;;;;;;;2.93;2.00;;;;;;;26.86;39.00;98174.88;8383523;28;20238;-79
2022/07/04 08:44:11;;;;;;;4.30;1.60;;;;;;;26.94;39.30;98177.56;8383418;28;20231;-79
2022/07/04 08:48:15;;;;;;;7.57;2.00;;;;;;;27.64;37.67;98170.78;8382737;28;20229;-79
2022/07/04 08:52:26;;;;;;;9.37;2.30;;;;;;;27.63;37.51;98175.28;8383358;28;20232;-80
2022/07/04 09:00:51;;;;;;;4.73;2.00;;;;;;;26.94;38.05;98176.69;8387948;28;20232;-77
2022/07/04 09:04:53;;;;;;;11.97;2.40;;;;;;;26.41;39.33;98165.56;8416025;28;20278;-81
2022/07/04 09:08:56;;;;;;;6.40;1.90;;;;;;;26.78;38.96;98161.59;8415568;28;20238;-81
2022/07/04 09:13:03;;;;;;;3.63;1.90;;;;;;;26.68;38.33;98161.78;8415656;28;20233;-80
2022/07/04 09:17:16;;;;;;;5.17;1.67;;;;;;;26.78;38.07;98161.59;8415595;28;20239;-80
2022/07/04 09:21:19;;;;;;;7.27;1.90;;;;;;;26.77;38.65;98157.28;8415688;28;20227;-80
2022/07/04 09:25:22;;;;;;;3.03;1.73;;;;;;;26.62;38.29;98163.25;8414850;28;20225;-78
2022/07/04 09:29:25;;;;;;;4.90;1.50;;;;;;;26.82;39.13;98160.28;8414968;28;20223;-79
2022/07/04 09:33:49;;;;;;;3.90;1.70;;;;;;;26.67;38.98;98170.72;8414593;28;20240;-80
2022/07/04 09:37:54;;;;;;;8.00;2.00;;;;;;;26.58;39.39;98180.50;8414822;28;20231;-81
2022/07/04 09:41:58;;;;;;;5.53;1.70;;;;;;;26.71;38.93;98188.00;8414498;28;20234;-81
2022/07/04 09:46:01;;;;;;;7.03;2.00;;;;;;;26.62;39.52;98184.50;8414621;28;20226;-81
2022/07/04 09:50:07;;;;;;;9.53;2.03;;;;;;;27.15;38.07;98190.31;8414363;28;20568;-81
2022/07/04 09:54:15;;;;;;;3.07;1.67;;;;;;;27.60;37.54;98180.09;8414589;28;20231;-81
2022/07/04 09:58:17;;;;;;;6.40;1.90;;;;;;;27.66;37.14;98179.41;8413421;28;20237;-81
2022/07/04 10:02:20;;;;;;;4.83;2.00;;;;;;;27.37;37.73;98178.16;8414138;28;20235;-81
2022/07/04 10:06:26;;;;;;;2.10;1.80;;;;;;;27.79;36.00;98184.19;8413667;28;20241;-80
2022/07/04 10:10:34;;;;;;;4.37;1.83;;;;;;;27.22;36.76;98177.16;8413891;28;20247;-81
2022/07/04 10:14:37;;;;;;;3.07;1.60;;;;;;;27.36;37.30;98184.50;8413892;28;20278;-81
2022/07/04 10:18:42;;;;;;;2.13;1.67;;;;;;;27.78;36.61;98187.84;8413805;28;20245;-81
2022/07/04 10:22:47;;;;;;;3.20;1.80;;;;;;;27.82;37.23;98179.34;8405842;28;20243;-84
2022/07/04 10:26:50;;;;;;;6.63;2.20;;;;;;;27.79;36.44;98189.50;8381108;28;20229;-82
2022/07/04 10:30:54;;;;;;;9.23;1.60;;;;;;;28.80;35.91;98187.81;8381126;28;20532;-79
2022/07/04 10:34:57;;;;;;;3.70;1.70;;;;;;;28.24;36.15;98183.50;8380784;28;20228;-82
2022/07/04 10:39:02;;;;;;;5.13;1.87;;;;;;;28.31;35.56;98190.78;8380178;28;20234;-84
2022/07/04 10:43:41;;;;;;;4.17;1.93;;;;;;;28.27;36.99;98182.31;8380504;28;20230;-82
2022/07/04 10:47:58;;;;;;;4.40;1.73;;;;;;;28.64;35.96;98183.44;8380002;28;20333;-83
2022/07/04 10:52:10;;;;;;;4.07;1.60;;;;;;;28.27;35.67;98188.47;8380658;28;20230;-82
2022/07/04 10:56:35;;;;;;;3.40;1.80;;;;;;;28.05;36.57;98181.28;8380203;28;20237;-84
2022/07/04 11:00:38;;;;;;;6.07;1.90;;;;;;;28.63;35.17;98190.56;8382769;28;20236;-82
2022/07/04 11:05:09;;;;;;;5.07;1.40;;;;;;;29.48;33.59;98190.53;8392349;28;20640;-82
2022/07/04 11:09:15;;;;;;;3.87;1.57;;;;;;;29.59;32.57;98180.22;8335545;28;20241;-82
2022/07/04 11:13:19;;;;;;;3.10;1.40;;;;;;;29.67;32.97;98186.50;8386440;28;20241;-81
2022/07/04 11:17:32;;;;;;;2.77;1.70;;;;;;;29.54;33.25;98179.13;8385750;28;20224;-83
2022/07/04 11:21:35;;;;;;;4.97;1.47;;;;;;;29.08;33.58;98184.56;8385976;28;20568;-82
2022/07/04 11:25:39;;;;;;;4.57;1.33;;;;;;;29.56;33.02;98183.25;8386018;28;20230;-81
2022/07/04 11:29:51;;;;;;;4.90;1.13;;;;;;;28.87;32.65;98187.94;8385781;28;20549;-84
2022/07/04 11:33:55;;;;;;;2.30;1.20;;;;;;;28.79;31.71;98181.66;8386684;28;20227;-83
2022/07/04 11:37:58;;;;;;;10.43;1.40;;;;;;;29.50;30.29;98167.16;8386744;28;20225;-83
2022/07/04 11:46:23;;;;;;;3.30;1.30;;;;;;;29.88;30.02;98156.41;8386514;28;20237;-82
2022/07/04 11:50:26;;;;;;;5.20;1.40;;;;;;;30.07;30.68;98158.47;8384763;28;20234;-82
2022/07/04 11:54:30;;;;;;;4.07;1.40;;;;;;;30.41;29.62;98154.34;8385803;28;20227;-83
2022/07/04 11:58:53;;;;;;;3.43;1.67;;;;;;;30.44;29.36;98150.44;8386029;28;20222;-82
2022/07/04 12:03:00;;;;;;;2.80;1.30;;;;;;;29.53;30.93;98140.97;8408517;28;20260;-82
2022/07/04 12:07:09;;;;;;;4.93;1.50;;;;;;;30.32;29.94;98139.47;8407246;28;20232;-82
2022/07/04 12:11:12;;;;;;;10.63;1.93;;;;;;;30.17;30.46;98134.94;8384688;28;20265;-82
2022/07/04 12:15:15;;;;;;;3.30;1.20;;;;;;;30.84;30.07;98132.09;8384611;28;20235;-82
2022/07/04 12:19:19;;;;;;;2.73;1.20;;;;;;;30.52;29.82;98132.47;8384264;28;20231;-81
2022/07/04 12:23:25;;;;;;;5.00;1.20;;;;;;;30.37;28.97;98134.38;8383157;28;20232;-81
2022/07/04 12:27:29;;;;;;;5.07;1.33;;;;;;;30.65;29.47;98128.25;8384277;28;20433;-82
2022/07/04 12:31:42;;;;;;;3.27;1.20;;;;;;;30.80;30.45;98127.13;8383748;28;20240;-81
2022/07/04 12:35:48;;;;;;;3.70;1.00;;;;;;;31.19;29.09;98122.31;8384003;28;20466;-82
2022/07/04 12:39:51;;;;;;;4.73;1.23;;;;;;;30.82;28.43;98110.09;8383850;28;20229;-82
2022/07/04 12:43:54;;;;;;;2.57;1.20;;;;;;;30.34;29.07;98108.03;8407084;28;20255;-80
2022/07/04 12:47:57;;;;;;;3.97;1.33;;;;;;;30.96;28.16;98093.97;8417299;28;20419;-82
2022/07/04 12:52:09;;;;;;;2.17;1.10;;;;;;;31.24;27.96;98090.44;8417263;28;20228;-81
2022/07/04 12:56:28;;;;;;;4.53;1.07;;;;;;;30.65;27.59;98072.13;8416344;28;20232;-80
2022/07/04 13:00:31;;;;;;;3.73;1.13;;;;;;;31.33;27.90;98070.50;8415305;28;20441;-81
2022/07/04 13:04:38;;;;;;;2.77;1.23;;;;;;;30.33;28.95;98077.84;8415742;28;20239;-81
2022/07/04 13:08:42;;;;;;;2.80;1.10;;;;;;;29.79;27.41;98068.41;8415544;28;20297;-81
2022/07/04 13:12:45;;;;;;;3.33;1.17;;;;;;;30.59;27.18;98069.19;8415890;28;20401;-81
2022/07/04 13:16:48;;;;;;;2.23;1.23;;;;;;;30.96;26.22;98061.88;8415666;28;20227;-79
2022/07/04 13:20:51;;;;;;;6.57;1.10;;;;;;;30.97;26.16;98066.19;8414999;28;20229;-81
2022/07/04 13:24:55;;;;;;;4.13;1.00;;;;;;;30.99;26.27;98061.47;8415669;28;20247;-80
2022/07/04 13:28:58;;;;;;;3.60;1.10;;;;;;;31.09;26.81;98057.63;8415430;28;20574;-81
2022/07/04 13:33:01;;;;;;;13.33;1.30;;;;;;;31.14;24.95;98052.53;8415248;28;20231;-81
2022/07/04 13:37:05;;;;;;;3.20;0.90;;;;;;;31.15;25.47;98048.84;8414923;28;20228;-81
2022/07/04 13:41:09;;;;;;;2.47;1.00;;;;;;;31.35;25.85;98044.38;8414611;28;20244;-81
2022/07/04 13:45:14;;;;;;;2.47;0.97;;;;;;;30.88;25.51;98040.63;8398451;28;20230;-80
2022/07/04 13:49:17;;;;;;;1.00;0.70;;;;;;;30.52;27.20;98046.13;8395464;28;20254;-80
2022/07/04 13:53:20;;;;;;;3.40;1.00;;;;;;;30.92;26.27;98047.28;8414600;28;20231;-80
2022/07/04 13:57:24;;;;;;;3.47;1.07;;;;;;;31.02;26.54;98033.53;8414189;28;20239;-79
2022/07/04 14:01:27;;;;;;;3.43;1.10;;;;;;;31.13;25.65;98027.63;8414370;28;20239;-80
2022/07/04 14:05:30;;;;;;;5.57;0.97;;;;;;;31.05;24.33;98032.31;8414415;28;20534;-81
2022/07/04 14:09:33;;;;;;;1.57;0.90;;;;;;;31.14;24.54;98023.91;8414141;28;20245;-81
2022/07/04 14:13:37;;;;;;;7.33;0.90;;;;;;;30.51;26.17;98029.25;8414040;28;20255;-81
2022/07/04 14:17:40;;;;;;;2.23;0.90;;;;;;;29.88;26.22;98031.78;8413745;28;20245;-81
2022/07/04 14:21:43;;;;;;;4.30;1.30;;;;;;;29.78;26.35;98032.09;8401657;28;20231;-81
2022/07/04 14:25:46;;;;;;;1.40;0.93;;;;;;;30.57;25.12;98025.00;8410670;28;20229;-81
2022/07/04 14:29:50;;;;;;;4.50;0.93;;;;;;;30.56;24.89;98013.50;8400140;28;20230;-80
2022/07/04 14:33:55;;;;;;;3.07;1.07;;;;;;;30.32;26.00;98017.41;8401088;28;20236;-80
2022/07/04 14:37:59;;;;;;;2.33;1.00;;;;;;;29.76;26.49;98007.44;8413728;28;20228;-81
2022/07/04 14:42:02;;;;;;;2.40;0.90;;;;;;;30.59;26.50;98004.25;8413534;28;20227;-81
2022/07/04 14:46:07;;;;;;;3.63;1.10;;;;;;;30.55;26.33;97993.13;8418808;28;20225;-80
2022/07/04 14:50:10;;;;;;;3.60;1.13;;;;;;;30.67;25.33;97989.91;8420446;28;20230;-80
2022/07/04 14:54:13;;;;;;;2.97;1.00;;;;;;;30.83;26.03;97994.13;8420283;28;20235;-81
2022/07/04 14:58:16;;;;;;;1.60;1.00;;;;;;;30.31;25.75;97990.84;8420139;28;20224;-82
2022/07/04 15:02:20;;;;;;;2.30;0.80;;;;;;;30.59;24.83;97983.69;8419721;28;20238;-81
2022/07/04 15:06:24;;;;;;;2.63;0.80;;;;;;;30.56;25.42;97976.06;8419593;28;20415;-82
2022/07/04 15:10:26;;;;;;;2.77;0.90;;;;;;;30.50;24.65;97973.34;8419494;28;20239;-82
2022/07/04 15:14:49;;;;;;;2.60;0.90;;;;;;;30.53;24.80;97970.28;8419466;28;20227;-83
2022/07/04 15:18:55;;;;;;;1.73;0.90;;;;;;;30.18;25.09;97963.03;8419299;28;20229;-82
2022/07/04 15:27:18;;;;;;;2.60;0.90;;;;;;;30.16;25.26;97961.59;8419642;28;20627;-82
2022/07/04 15:31:21;;;;;;;1.53;0.70;;;;;;;30.12;24.81;97962.97;8419342;28;20229;-82
2022/07/04 15:35:26;;;;;;;4.43;0.93;;;;;;;30.14;24.01;97952.91;8418784;28;20521;-81
2022/07/04 15:39:29;;;;;;;4.17;0.90;;;;;;;30.00;24.15;97946.66;8419224;28;20231;-82
2022/07/04 15:43:32;;;;;;;3.37;1.00;;;;;;;29.90;24.30;97957.66;8419105;28;20543;-82
2022/07/04 15:47:35;;;;;;;3.20;0.80;;;;;;;29.84;24.04;97970.97;8419193;28;20238;-82
2022/07/04 15:51:39;;;;;;;2.03;0.80;;;;;;;29.85;24.74;97953.91;8419132;28;20242;-82
2022/07/04 15:55:47;;;;;;;3.90;0.70;;;;;;;29.91;24.14;97971.81;8418913;28;20359;-81
2022/07/04 15:59:50;;;;;;;1.17;0.70;;;;;;;29.72;22.84;97974.09;8418975;28;20415;-81
2022/07/04 16:03:53;;;;;;;3.57;0.80;;;;;;;29.81;22.91;97967.63;8418501;28;20238;-82
2022/07/04 16:07:58;;;;;;;2.57;0.70;;;;;;;29.85;23.49;97975.25;8387369;28;20236;-85
2022/07/04 16:12:01;;;;;;;1.40;0.70;;;;;;;29.69;23.30;97971.00;8385445;28;20232;-82
2022/07/04 16:16:05;;;;;;;2.10;0.80;;;;;;;29.53;22.87;97972.88;8388065;28;20363;-79
2022/07/04 16:20:09;;;;;;;1.87;0.60;;;;;;;29.54;22.11;97968.38;8417916;28;20249;-83
2022/07/04 16:24:13;;;;;;;3.23;0.83;;;;;;;29.39;21.58;97968.41;8417723;28;20236;-81
2022/07/04 16:28:16;;;;;;;1.47;1.00;;;;;;;29.22;21.78;97962.47;8417351;28;20222;-82
2022/07/04 16:32:19;;;;;;;2.47;0.60;;;;;;;29.24;22.10;97960.44;8407610;28;20560;-84
2022/07/04 16:36:22;;;;;;;0.90;0.60;;;;;;;29.21;23.00;97960.81;8414039;28;20233;-78
2022/07/04 16:40:27;;;;;;;1.73;0.80;;;;;;;29.15;22.84;97961.56;8417174;28;20233;-82
2022/07/04 16:44:30;;;;;;;1.47;0.60;;;;;;;28.97;23.09;97948.59;8417218;28;20238;-79
2022/07/04 16:48:33;;;;;;;2.37;0.73;;;;;;;28.91;23.16;97952.00;8417711;28;20549;-80
2022/07/04 16:52:41;;;;;;;2.87;1.00;;;;;;;28.68;23.87;97958.28;8416241;28;20233;-82
2022/07/04 16:56:46;;;;;;;1.47;0.80;;;;;;;28.57;23.70;97959.53;8416660;28;20241;-79
2022/07/04 17:00:49;;;;;;;1.93;0.70;;;;;;;28.66;23.93;97965.63;8416571;28;20222;-83
2022/07/04 17:04:52;;;;;;;4.23;0.80;;;;;;;28.44;24.58;97965.50;8417010;28;20278;-82
2022/07/04 17:08:55;;;;;;;4.20;0.80;;;;;;;28.26;24.35;97968.47;8416110;28;20234;-85
2022/07/04 17:12:59;;;;;;;2.60;1.30;;;;;;;28.24;24.32;97975.00;8416422;28;20237;-81
2022/07/04 17:17:02;;;;;;;3.13;1.70;;;;;;;28.11;24.70;97977.44;8415971;28;20245;-82
2022/07/04 17:21:08;;;;;;;6.23;1.27;;;;;;;28.08;25.36;97982.13;8409034;28;20228;-79
2022/07/04 17:25:13;;;;;;;2.37;0.97;;;;;;;27.97;25.18;97993.19;8397886;28;20240;-79
2022/07/04 17:29:19;;;;;;;1.70;0.97;;;;;;;27.87;23.37;97985.44;8415285;28;20295;-79
2022/07/04 17:33:23;;;;;;;1.23;0.80;;;;;;;27.78;24.37;97988.28;8414228;28;20229;-79
2022/07/04 17:37:25;;;;;;;3.20;0.80;;;;;;;27.83;24.89;97985.94;8414609;28;20233;-79
2022/07/04 17:41:47;;;;;;;2.47;0.60;;;;;;;27.77;24.94;97984.00;8414721;28;20232;-78
2022/07/04 17:45:51;;;;;;;0.97;0.60;;;;;;;27.67;25.21;97981.56;8414306;28;20225;-83
2022/07/04 17:49:55;;;;;;;3.60;0.73;;;;;;;27.57;24.94;97976.47;8414606;28;20232;-80
2022/07/04 17:53:57;;;;;;;3.83;0.70;;;;;;;27.57;25.96;97973.81;8414211;28;20552;-79
2022/07/04 17:58:01;;;;;;;2.80;0.70;;;;;;;27.49;26.24;97985.34;8414081;28;20241;-77
2022/07/04 18:02:05;;;;;;;3.23;0.70;;;;;;;27.48;25.81;97983.66;8413963;28;20233;-80
2022/07/04 18:06:08;;;;;;;1.90;0.70;;;;;;;27.44;25.85;97982.38;8413932;28;20535;-80
2022/07/04 18:10:12;;;;;;;3.50;0.70;;;;;;;27.45;26.12;97984.00;8413753;28;20237;-80
2022/07/04 18:14:15;;;;;;;3.83;0.70;;;;;;;27.38;25.62;97979.56;8413819;28;20240;-80
2022/07/04 18:18:20;;;;;;;1.03;0.70;;;;;;;27.38;25.43;97968.94;8412808;28;20499;-80
2022/07/04 18:22:23;;;;;;;3.73;0.70;;;;;;;27.30;25.28;97969.81;8391010;28;20245;-83
2022/07/04 18:26:27;;;;;;;1.20;0.80;;;;;;;27.30;26.87;97973.31;8379069;28;20232;-81
2022/07/04 18:30:31;;;;;;;1.53;0.80;;;;;;;27.22;27.21;97969.81;8378948;28;20228;-79
2022/07/04 18:34:37;;;;;;;3.33;1.10;;;;;;;27.17;27.64;97964.19;8400628;28;20429;-79
2022/07/04 18:38:40;;;;;;;2.27;0.80;;;;;;;27.09;28.70;97975.69;8413295;28;20226;-80
2022/07/04 18:47:03;;;;;;;7.03;1.13;;;;;;;26.91;30.44;97967.97;8413318;28;20234;-82
2022/07/04 18:51:15;;;;;;;4.43;1.03;;;;;;;26.89;29.46;97970.78;8413441;28;20524;-82
2022/07/04 18:55:18;;;;;;;1.23;0.70;;;;;;;26.87;29.82;97970.16;8413103;28;20648;-82
2022/07/04 18:59:21;;;;;;;4.50;1.00;;;;;;;26.82;30.54;97977.78;8413403;28;20231;-82
2022/07/04 19:03:24;;;;;;;8.33;1.23;;;;;;;26.78;30.72;97975.66;8412935;28;20238;-82
2022/07/04 19:07:28;;;;;;;2.70;1.10;;;;;;;26.75;31.98;97982.16;8412901;28;20258;-81
2022/07/04 19:11:31;;;;;;;4.87;1.10;;;;;;;26.67;31.93;97988.31;8383972;28;20251;-82
2022/07/04 19:15:34;;;;;;;7.07;1.20;;;;;;;26.60;32.02;97989.13;8379761;28;20236;-81
2022/07/04 19:19:37;;;;;;;5.30;1.00;;;;;;;26.58;32.02;97997.25;8380035;28;20569;-82
2022/07/04 19:23:41;;;;;;;7.50;1.20;;;;;;;26.51;31.43;98009.56;8380006;28;20237;-81
2022/07/04 19:27:45;;;;;;;2.50;0.90;;;;;;;26.44;31.08;98020.00;8379823;28;20241;-81
2022/07/04 19:31:47;;;;;;;2.20;0.90;;;;;;;26.38;31.47;98025.97;8384063;28;20234;-81
2022/07/04 19:35:51;;;;;;;9.03;1.23;;;;;;;26.35;31.47;98026.34;8386268;28;20255;-81
2022/07/04 19:39:55;;;;;;;2.00;1.00;;;;;;;26.32;32.21;98034.63;8394854;28;20215;-80
2022/07/04 19:43:58;;;;;;;6.70;1.30;;;;;;;26.29;32.35;98040.25;8402041;28;20419;-81